Terminal Aerodrome Forecast
Issued by NWS

Home | Current Version | Previous Version | Text Only | Print | Product List | Glossary On
Versions: 1 2 3 4 5 6 7 8 9 10 11 12 13 14 15
000
FTPA31 PHFO 252340
TAFHKO
TAF
PHKO 252340Z 2600/2624 32010KT P6SM -SHRA SCT030 BKN060
      TEMPO 2600/2602 4SM SHRA BR SCT015 BKN030 OVC060
     FM260300 21008KT P6SM VCSH SCT020 BKN040
     FM261000 12007KT P6SM SCT020 SCT040
     FM261900 25009KT P6SM SCT060=

USA.gov is the U.S. government's official web portal to all federal, state and local government web resources and services.